Time;durP1;ratioP1;P1;durP2;ratioP2;P2;SDS_P1;SDS_P2;PMS_P1;PMS_P2;Temp;Humidity;BMP_temperature;BMP_pressure;BME280_temperature;BME280_humidity;BME280_pressure;Samples;Min_cycle;Max_cycle;Signal;HPM_P1;HPM_P2
2021/09/20 00:01:41;;;;;;;6.13;4.53;;;;;;;13.26;100.00;92988.31;5052295;28;20059;-77
2021/09/20 00:04:08;;;;;;;8.52;4.45;;;;;;;13.17;100.00;92981.94;5052615;28;20044;-77
2021/09/20 00:06:35;;;;;;;6.78;4.47;;;;;;;13.09;100.00;92976.16;5052486;28;20052;-77
2021/09/20 00:09:04;;;;;;;5.90;4.35;;;;;;;13.09;100.00;92976.16;5051983;28;20048;-77
2021/09/20 00:11:31;;;;;;;8.57;4.32;;;;;;;13.09;100.00;92973.56;5051898;28;20053;-77
2021/09/20 00:13:57;;;;;;;7.55;4.55;;;;;;;13.02;100.00;92975.50;5052064;28;20053;-77
2021/09/20 00:16:24;;;;;;;7.25;5.38;;;;;;;12.86;100.00;92963.34;5052378;28;20057;-77
2021/09/20 00:18:51;;;;;;;6.25;4.82;;;;;;;12.98;100.00;92983.91;5052080;28;20482;-77
2021/09/20 00:21:18;;;;;;;5.85;4.50;;;;;;;12.95;100.00;92974.84;5051902;28;20079;-77
2021/09/20 00:23:45;;;;;;;5.95;4.75;;;;;;;12.94;100.00;92971.50;5051834;28;20053;-77
2021/09/20 00:26:13;;;;;;;8.68;5.80;;;;;;;12.90;100.00;92970.38;5052105;28;20052;-77
2021/09/20 00:28:40;;;;;;;8.45;5.35;;;;;;;12.92;100.00;92970.16;5051861;28;20056;-77
2021/09/20 00:31:07;;;;;;;7.40;5.45;;;;;;;12.86;100.00;92965.94;5052097;28;20053;-77
2021/09/20 00:33:34;;;;;;;6.38;5.10;;;;;;;12.86;100.00;92971.09;5051825;28;20041;-77
2021/09/20 00:36:01;;;;;;;6.95;5.70;;;;;;;12.80;100.00;92957.31;5052055;28;20076;-77
2021/09/20 00:38:28;;;;;;;7.68;5.68;;;;;;;12.79;100.00;92956.53;5051985;28;20048;-77
2021/09/20 00:40:55;;;;;;;12.10;5.72;;;;;;;12.78;100.00;92949.78;5051394;28;20049;-77
2021/09/20 00:43:23;;;;;;;8.18;5.88;;;;;;;12.78;100.00;92936.91;5051561;28;20041;-77
2021/09/20 00:45:50;;;;;;;9.48;5.72;;;;;;;12.85;100.00;92947.09;5051626;28;20048;-76
2021/09/20 00:48:17;;;;;;;8.50;5.28;;;;;;;12.86;100.00;92953.03;5051515;28;20052;-77
2021/09/20 00:50:44;;;;;;;7.15;5.07;;;;;;;12.85;100.00;92957.41;5051367;28;20053;-77
2021/09/20 00:53:10;;;;;;;7.40;5.07;;;;;;;12.80;100.00;92957.31;5051318;28;20409;-77
2021/09/20 00:55:40;;;;;;;5.55;4.63;;;;;;;12.75;100.00;92952.84;5051605;28;20060;-76
2021/09/20 00:58:08;;;;;;;8.27;5.82;;;;;;;12.72;100.00;92955.09;5051583;28;20087;-77
2021/09/20 01:00:36;;;;;;;7.72;4.72;;;;;;;12.74;100.00;92964.19;5051487;28;20045;-77
2021/09/20 01:03:03;;;;;;;8.30;5.03;;;;;;;12.69;100.00;92958.91;5051299;28;20052;-77
2021/09/20 01:05:31;;;;;;;6.22;4.93;;;;;;;12.74;100.00;92971.91;5051091;28;20053;-77
2021/09/20 01:07:58;;;;;;;8.50;5.93;;;;;;;12.73;100.00;92967.75;5050992;28;20057;-77
2021/09/20 01:10:24;;;;;;;10.23;6.18;;;;;;;12.75;100.00;92959.78;5051036;28;20060;-76
2021/09/20 01:12:51;;;;;;;10.45;6.70;;;;;;;12.71;100.00;92951.72;5050937;28;20049;-77
2021/09/20 01:15:18;;;;;;;10.05;7.75;;;;;;;12.77;100.00;92957.78;5051325;28;20072;-77
2021/09/20 01:17:47;;;;;;;9.25;6.65;;;;;;;12.74;100.00;92961.59;5051157;28;20049;-77
2021/09/20 01:20:14;;;;;;;10.73;6.30;;;;;;;12.74;100.00;92963.38;5051047;28;20107;-77
2021/09/20 01:22:42;;;;;;;9.13;5.85;;;;;;;12.64;100.00;92959.59;5051167;28;20048;-76
2021/09/20 01:25:12;;;;;;;9.45;5.35;;;;;;;12.62;100.00;92958.25;5051054;28;20056;-76
2021/09/20 01:27:39;;;;;;;8.07;5.07;;;;;;;12.47;100.00;92945.84;5050679;28;20095;-76
2021/09/20 01:30:07;;;;;;;8.88;5.97;;;;;;;12.45;100.00;92953.03;5050891;28;20056;-76
2021/09/20 01:32:34;;;;;;;8.57;6.28;;;;;;;12.46;100.00;92957.16;5050659;28;20048;-76
2021/09/20 01:35:01;;;;;;;9.25;6.05;;;;;;;12.41;100.00;92943.16;5050576;28;20095;-76
2021/09/20 01:37:28;;;;;;;6.90;5.20;;;;;;;12.44;100.00;92957.41;5050680;28;20048;-76
2021/09/20 01:39:55;;;;;;;12.35;6.68;;;;;;;12.37;100.00;92951.59;5050523;28;20563;-76
2021/09/20 01:42:23;;;;;;;14.93;7.18;;;;;;;12.35;100.00;92958.78;5050470;28;20049;-76
2021/09/20 01:44:50;;;;;;;8.95;6.22;;;;;;;12.35;100.00;92959.53;5050227;28;20104;-77
2021/09/20 01:47:16;;;;;;;10.30;6.50;;;;;;;12.41;100.00;92956.06;5050495;28;20826;-77
2021/09/20 01:49:43;;;;;;;12.27;7.10;;;;;;;12.38;100.00;92940.28;5050591;28;20041;-76
2021/09/20 01:52:10;;;;;;;10.93;6.95;;;;;;;12.28;100.00;92922.84;5049520;28;20087;-76
2021/09/20 01:54:37;;;;;;;11.10;6.95;;;;;;;12.45;100.00;92943.50;5050595;28;20045;-75
2021/09/20 01:57:04;;;;;;;14.35;8.40;;;;;;;12.44;100.00;92947.09;5050153;28;20049;-76
2021/09/20 01:59:32;;;;;;;10.65;6.88;;;;;;;12.52;100.00;92949.31;5050263;28;20045;-76
2021/09/20 02:01:59;;;;;;;11.25;7.13;;;;;;;12.53;100.00;92937.22;5050472;28;20052;-76
2021/09/20 02:04:26;;;;;;;12.30;7.10;;;;;;;12.56;100.00;92936.75;5050063;28;20049;-76
2021/09/20 02:06:53;;;;;;;10.05;6.68;;;;;;;12.50;100.00;92928.16;5050108;28;20653;-76
2021/09/20 02:09:20;;;;;;;9.68;6.47;;;;;;;12.57;100.00;92925.44;5049869;28;20509;-76
2021/09/20 02:11:47;;;;;;;9.52;5.57;;;;;;;12.50;100.00;92914.50;5049902;28;20053;-76
2021/09/20 02:14:14;;;;;;;7.07;4.88;;;;;;;12.43;100.00;92912.84;5049999;28;20041;-76
2021/09/20 02:16:42;;;;;;;8.13;5.55;;;;;;;12.31;100.00;92901.75;5049961;28;20045;-77
2021/09/20 02:19:10;;;;;;;9.25;5.78;;;;;;;12.39;100.00;92904.00;5049954;28;20111;-77
2021/09/20 02:21:37;;;;;;;7.97;5.40;;;;;;;12.37;100.00;92894.94;5049780;28;20049;-77
2021/09/20 06:45:49;;;;;;;27.65;16.45;;;;;;;14.21;100.00;92957.75;5081424;27;1336494;-77
2021/09/20 06:48:16;;;;;;;24.10;16.27;;;;;;;13.94;100.00;92951.47;5106724;28;20389;-77
2021/09/20 06:50:43;;;;;;;27.58;15.35;;;;;;;14.06;100.00;92948.78;5106777;28;20059;-77
2021/09/20 06:53:10;;;;;;;24.25;14.23;;;;;;;13.99;100.00;92940.41;5106787;28;20058;-77
2021/09/20 06:55:37;;;;;;;24.70;14.90;;;;;;;14.22;100.00;92957.53;5106667;28;20553;-77
2021/09/20 06:58:04;;;;;;;22.90;14.65;;;;;;;14.29;100.00;92958.13;5106608;28;20059;-77
2021/09/20 07:00:32;;;;;;;26.00;15.73;;;;;;;14.13;100.00;92935.69;5106725;28;20044;-78
2021/09/20 07:03:00;;;;;;;29.63;16.55;;;;;;;13.97;100.00;92937.28;5106518;28;20047;-78
2021/09/20 08:22:37;;;;;;;6.85;3.47;;;;;;;18.98;100.00;92911.44;5064633;28;20082;-78
2021/09/20 08:25:05;;;;;;;8.80;3.92;;;;;;;19.03;100.00;92917.41;5071036;28;20512;-79
2021/09/20 08:27:32;;;;;;;6.47;4.05;;;;;;;19.13;100.00;92914.00;5070967;28;20051;-79
2021/09/20 08:29:58;;;;;;;6.10;3.28;;;;;;;19.20;100.00;92914.47;5070833;28;20053;-79
2021/09/20 08:32:25;;;;;;;8.88;3.95;;;;;;;19.23;100.00;92913.94;5070758;28;20114;-80
2021/09/20 08:34:52;;;;;;;7.53;3.75;;;;;;;19.16;100.00;92905.63;5070616;28;20056;-80
2021/09/20 08:37:19;;;;;;;7.03;3.67;;;;;;;19.23;100.00;92919.16;5084446;28;20420;-79
2021/09/20 08:39:48;;;;;;;10.57;3.80;;;;;;;19.34;100.00;92922.44;5090757;28;20056;-79
2021/09/20 08:42:16;;;;;;;7.35;4.28;;;;;;;19.38;100.00;92911.50;5090894;28;20557;-80
2021/09/20 08:44:43;;;;;;;6.70;4.63;;;;;;;19.43;100.00;92906.22;5065208;28;20041;-79
2021/09/20 08:47:13;;;;;;;10.90;4.10;;;;;;;19.50;100.00;92914.53;5059771;28;20042;-80
2021/09/20 08:49:41;;;;;;;7.00;4.32;;;;;;;19.38;100.00;92890.66;5055594;28;20508;-79
2021/09/20 08:52:07;;;;;;;7.55;3.90;;;;;;;19.60;100.00;92908.44;5060104;28;20048;-80
2021/09/20 08:54:34;;;;;;;6.18;4.03;;;;;;;19.71;100.00;92907.31;5055493;28;20052;-80
2021/09/20 08:57:03;;;;;;;6.80;3.95;;;;;;;19.76;100.00;92896.06;5057249;28;20040;-80
2021/09/20 08:59:30;;;;;;;5.32;2.92;;;;;;;19.85;100.00;92893.63;5059749;28;20041;-79
2021/09/20 09:01:57;;;;;;;5.93;3.47;;;;;;;19.92;100.00;92890.72;5058912;28;20566;-80
2021/09/20 09:04:29;;;;;;;8.50;3.80;;;;;;;19.95;100.00;92887.56;5060630;28;20092;-81
2021/09/20 09:07:01;;;;;;;7.82;3.60;;;;;;;20.12;100.00;92894.97;5060534;28;20045;-80
2021/09/20 09:09:30;;;;;;;8.13;3.15;;;;;;;20.15;100.00;92876.16;5060545;28;20055;-80
2021/09/20 09:12:17;;;;;;;8.90;3.80;;;;;;;20.41;100.00;92894.16;5060231;28;20041;-80
2021/09/20 09:14:46;;;;;;;8.15;3.88;;;;;;;20.58;100.00;92887.66;5055338;28;20459;-80
2021/09/20 09:17:15;;;;;;;6.30;3.60;;;;;;;20.74;100.00;92885.66;5056311;28;20409;-80
2021/09/20 09:19:44;;;;;;;6.10;3.70;;;;;;;20.98;100.00;92890.06;5060635;28;20053;-80
2021/09/20 09:22:11;;;;;;;8.70;3.88;;;;;;;21.09;98.83;92891.47;5049893;28;20505;-80
2021/09/20 09:24:38;;;;;;;5.63;3.40;;;;;;;21.21;96.62;92885.84;5050194;28;20045;-80
2021/09/20 09:27:05;;;;;;;7.82;4.03;;;;;;;21.37;97.41;92886.38;5050283;28;20452;-80
2021/09/20 09:29:35;;;;;;;7.20;3.03;;;;;;;21.61;95.48;92891.47;5050165;28;20060;-80
2021/09/20 09:32:03;;;;;;;8.82;3.30;;;;;;;21.72;93.87;92897.31;5050303;28;20072;-80
2021/09/20 09:34:33;;;;;;;7.18;3.60;;;;;;;21.72;92.79;92893.97;5049752;28;20053;-80
2021/09/20 09:37:08;;;;;;;7.70;3.50;;;;;;;21.71;92.71;92882.72;5053360;28;20056;-80
2021/09/20 09:39:35;;;;;;;9.43;4.22;;;;;;;21.87;92.93;92898.94;5070852;28;20051;-81
2021/09/20 09:42:02;;;;;;;9.27;3.75;;;;;;;21.96;92.87;92898.25;5070253;28;20503;-81
2021/09/20 09:44:32;;;;;;;7.43;3.47;;;;;;;21.92;92.25;92892.84;5090175;28;20135;-81
2021/09/20 09:47:01;;;;;;;6.03;3.17;;;;;;;21.97;92.01;92891.97;5089770;28;20063;-81
2021/09/20 09:49:29;;;;;;;9.02;3.45;;;;;;;22.01;92.31;92892.94;5089623;28;20048;-81
2021/09/20 09:52:01;;;;;;;6.78;3.30;;;;;;;22.09;90.83;92905.34;5089641;28;20402;-81
2021/09/20 09:54:33;;;;;;;8.38;3.70;;;;;;;22.05;91.26;92895.75;5086775;28;20052;-80
2021/09/20 09:57:12;;;;;;;5.28;3.08;;;;;;;22.07;90.15;92897.00;5069346;28;20090;-80
2021/09/20 09:59:39;;;;;;;10.00;3.85;;;;;;;22.00;90.66;92894.00;5069431;28;20489;-80
2021/09/20 10:02:25;;;;;;;6.40;3.00;;;;;;;21.91;90.55;92867.75;5069477;28;20063;-81
2021/09/20 10:04:54;;;;;;;7.75;3.38;;;;;;;22.14;90.43;92894.78;5069294;28;20132;-81
2021/09/20 10:07:27;;;;;;;8.05;3.50;;;;;;;22.23;90.53;92897.53;5069563;28;20048;-81
2021/09/20 10:09:55;;;;;;;8.52;3.15;;;;;;;22.26;90.22;92896.16;5069302;28;20055;-81
2021/09/20 10:12:24;;;;;;;6.95;3.03;;;;;;;22.36;86.91;92895.19;5069513;28;20051;-81
2021/09/20 10:14:53;;;;;;;6.82;3.42;;;;;;;22.21;89.84;92860.41;5069024;28;20060;-81
2021/09/20 10:17:23;;;;;;;10.10;4.07;;;;;;;22.42;88.25;92884.34;5069125;28;20055;-81
2021/09/20 10:19:50;;;;;;;14.18;3.80;;;;;;;22.47;87.34;92883.47;5069273;28;20058;-81
2021/09/20 10:22:18;;;;;;;6.05;3.78;;;;;;;22.54;88.34;92875.25;5069348;28;20052;-81
2021/09/20 10:24:49;;;;;;;6.38;3.03;;;;;;;22.75;89.05;92874.81;5064371;28;20049;-81
2021/09/20 10:27:18;;;;;;;7.53;3.80;;;;;;;22.94;85.71;92875.47;5067091;28;20045;-80
2021/09/20 10:29:49;;;;;;;8.25;3.08;;;;;;;23.05;87.95;92870.75;5069218;28;20091;-81
2021/09/20 10:32:16;;;;;;;6.82;3.97;;;;;;;23.11;87.53;92845.22;5082422;28;20106;-81
2021/09/20 10:34:46;;;;;;;11.93;3.03;;;;;;;23.58;85.76;92870.38;5080311;28;20055;-80
2021/09/20 10:37:15;;;;;;;6.88;2.95;;;;;;;23.57;82.48;92850.47;5067119;28;20479;-81
2021/09/20 10:40:04;;;;;;;8.20;3.97;;;;;;;23.80;81.93;92847.81;5068024;28;20049;-81
2021/09/20 10:43:06;;;;;;;7.30;2.83;;;;;;;24.03;82.15;92856.41;5068934;28;20190;-81
2021/09/20 10:45:53;;;;;;;8.27;3.65;;;;;;;24.29;81.35;92858.38;5034091;28;20492;-81
2021/09/20 10:48:27;;;;;;;9.80;3.40;;;;;;;24.49;79.79;92856.28;5049023;28;20049;-81
2021/09/20 10:50:57;;;;;;;7.28;2.88;;;;;;;24.49;79.34;92858.91;5049050;28;20049;-82
2021/09/20 10:53:32;;;;;;;5.95;2.53;;;;;;;24.67;79.41;92860.47;5048809;28;20098;-80
2021/09/20 10:56:17;;;;;;;6.07;3.28;;;;;;;24.82;79.09;92845.38;5046807;28;20091;-81
2021/09/20 10:59:08;;;;;;;7.05;3.00;;;;;;;24.91;79.68;92837.50;5048985;28;20045;-80
2021/09/20 11:01:35;;;;;;;5.80;3.08;;;;;;;24.92;78.08;92826.69;5048455;28;20045;-81
2021/09/20 11:04:04;;;;;;;7.63;3.53;;;;;;;25.06;77.23;92828.38;5048791;28;20131;-81
2021/09/20 11:06:35;;;;;;;9.48;3.15;;;;;;;24.94;76.41;92806.13;5048868;28;20048;-80
2021/09/20 11:09:31;;;;;;;8.43;3.47;;;;;;;25.07;76.52;92822.81;5048530;28;20535;-81
2021/09/20 11:12:09;;;;;;;7.07;3.00;;;;;;;25.03;76.35;92792.19;5048350;28;20474;-81
2021/09/20 11:14:42;;;;;;;7.50;3.00;;;;;;;25.07;75.86;92785.25;5048400;28;20145;-81
2021/09/20 11:17:28;;;;;;;10.82;3.47;;;;;;;25.32;75.94;92791.53;5048585;28;20049;-80
2021/09/20 11:19:58;;;;;;;9.30;3.10;;;;;;;25.53;77.78;92788.25;5048436;28;20057;-80
2021/09/20 11:22:28;;;;;;;7.65;3.13;;;;;;;25.67;75.02;92790.72;5056881;28;20065;-81
2021/09/20 11:25:02;;;;;;;5.78;2.90;;;;;;;25.72;74.97;92784.50;5052542;28;20409;-81
2021/09/20 11:27:31;;;;;;;5.70;2.65;;;;;;;25.77;72.98;92780.94;5052208;28;20084;-82
2021/09/20 11:30:00;;;;;;;9.10;3.15;;;;;;;25.80;73.26;92781.06;5052098;28;20455;-81
2021/09/20 11:32:28;;;;;;;7.30;2.72;;;;;;;25.88;71.49;92772.34;5051740;28;20049;-81
2021/09/20 11:34:57;;;;;;;6.32;2.53;;;;;;;25.80;72.22;92753.97;5051788;28;20053;-81
2021/09/20 11:37:28;;;;;;;8.88;3.10;;;;;;;25.78;71.42;92774.59;5052133;28;20088;-81
2021/09/20 11:39:58;;;;;;;5.65;3.08;;;;;;;25.78;71.81;92774.59;5051932;28;20053;-81
2021/09/20 11:42:27;;;;;;;3.97;2.58;;;;;;;25.81;71.97;92787.88;5051820;28;20063;-81
2021/09/20 11:44:56;;;;;;;7.45;2.85;;;;;;;25.81;71.83;92779.19;5060410;28;20041;-81
2021/09/20 11:47:26;;;;;;;7.20;3.70;;;;;;;25.79;72.26;92766.38;5069247;28;20063;-81
2021/09/20 11:50:02;;;;;;;8.45;3.47;;;;;;;25.86;72.52;92774.53;5072017;28;20052;-81
2021/09/20 11:52:36;;;;;;;5.00;3.03;;;;;;;25.93;72.26;92765.38;5061636;28;20099;-81
2021/09/20 11:55:04;;;;;;;8.52;2.80;;;;;;;25.93;72.76;92757.47;5052492;28;20164;-81
2021/09/20 11:57:35;;;;;;;7.80;2.47;;;;;;;25.88;72.57;92740.03;5054034;28;20045;-81
2021/09/20 12:00:07;;;;;;;7.80;3.13;;;;;;;26.00;71.27;92749.84;5063368;28;20113;-81
2021/09/20 12:02:42;;;;;;;5.32;2.75;;;;;;;25.95;71.66;92735.03;5065090;28;20406;-81
2021/09/20 12:05:12;;;;;;;6.13;2.30;;;;;;;26.06;69.98;92732.03;5063605;28;20124;-82
2021/09/20 12:07:46;;;;;;;5.60;2.20;;;;;;;26.23;68.48;92754.84;5061880;28;20533;-81
2021/09/20 12:10:14;;;;;;;5.93;2.55;;;;;;;26.18;66.37;92752.38;5056524;28;20075;-81
2021/09/20 12:12:42;;;;;;;6.53;2.30;;;;;;;25.99;66.56;92743.06;5059832;28;20051;-80
2021/09/20 12:15:15;;;;;;;6.50;1.67;;;;;;;26.03;66.24;92746.59;5071273;28;20053;-81
2021/09/20 12:17:58;;;;;;;7.10;2.42;;;;;;;25.99;67.60;92737.78;5071234;28;20045;-80
2021/09/20 12:20:28;;;;;;;5.05;2.22;;;;;;;26.12;63.13;92746.56;5071008;28;20045;-80
2021/09/20 12:22:58;;;;;;;6.53;1.75;;;;;;;26.12;63.74;92734.16;5071474;28;20040;-82
2021/09/20 12:25:31;;;;;;;5.78;2.42;;;;;;;26.11;63.17;92726.59;5071098;28;20048;-81
2021/09/20 12:27:59;;;;;;;2.47;1.33;;;;;;;26.20;62.02;92723.91;5071210;28;20098;-81
2021/09/20 12:30:28;;;;;;;5.75;1.70;;;;;;;26.32;62.38;92725.84;5071169;28;20049;-81
2021/09/20 12:33:09;;;;;;;4.97;1.70;;;;;;;26.38;60.80;92733.25;5052038;28;20049;-81
2021/09/20 12:35:38;;;;;;;3.67;1.63;;;;;;;26.41;59.83;92724.72;5050797;28;20060;-81
2021/09/20 12:38:27;;;;;;;4.57;1.63;;;;;;;26.32;59.63;92717.94;5051340;28;20963;-81
2021/09/20 12:40:56;;;;;;;3.55;1.70;;;;;;;26.35;59.21;92714.69;5051304;28;20444;-81
2021/09/20 12:43:26;;;;;;;4.10;1.77;;;;;;;26.35;58.91;92725.22;5051222;28;20048;-82
2021/09/20 12:45:54;;;;;;;3.67;1.88;;;;;;;26.24;58.83;92719.56;5051117;28;20041;-82
2021/09/20 12:48:33;;;;;;;3.75;2.17;;;;;;;26.18;60.45;92721.59;5051769;28;20060;-81
2021/09/20 12:51:01;;;;;;;2.58;1.30;;;;;;;26.15;58.80;92720.34;5051628;28;20130;-80
2021/09/20 12:53:38;;;;;;;3.40;1.70;;;;;;;26.27;60.11;92724.19;5050870;28;20476;-82
2021/09/20 12:56:08;;;;;;;4.45;1.23;;;;;;;26.16;59.67;92707.97;5060928;28;20833;-81
2021/09/20 12:58:42;;;;;;;4.97;1.42;;;;;;;26.23;60.79;92728.50;5070819;28;20441;-81
2021/09/20 13:01:10;;;;;;;5.03;1.77;;;;;;;26.13;59.34;92714.66;5070256;28;20048;-81
2021/09/20 13:03:38;;;;;;;3.40;1.90;;;;;;;26.09;59.10;92712.97;5071038;28;20417;-80
2021/09/20 13:06:09;;;;;;;5.60;1.98;;;;;;;26.01;59.10;92723.22;5066140;28;20049;-81
2021/09/20 13:08:40;;;;;;;3.60;2.10;;;;;;;25.78;60.13;92714.84;5068932;28;21085;-80
2021/09/20 13:11:18;;;;;;;5.13;2.00;;;;;;;25.78;59.79;92716.72;5069203;28;20048;-81
2021/09/20 13:13:45;;;;;;;4.45;2.00;;;;;;;25.78;59.49;92722.72;5062250;28;20044;-82
2021/09/20 13:16:13;;;;;;;4.68;2.13;;;;;;;25.61;60.70;92686.78;5069870;28;20057;-83
2021/09/20 13:18:41;;;;;;;3.25;1.75;;;;;;;25.96;60.51;92728.69;5070200;28;20036;-81
2021/09/20 13:21:20;;;;;;;4.28;2.05;;;;;;;26.04;60.70;92734.19;5070500;28;20056;-82
2021/09/20 13:23:49;;;;;;;7.30;2.38;;;;;;;26.19;60.19;92733.66;5070039;28;20056;-81
2021/09/20 13:26:16;;;;;;;2.95;1.42;;;;;;;26.28;60.56;92723.09;5070355;28;20048;-84
2021/09/20 13:28:44;;;;;;;4.47;1.80;;;;;;;26.46;58.60;92721.09;5069884;28;20045;-81
2021/09/20 13:31:13;;;;;;;3.85;2.13;;;;;;;26.57;58.71;92733.88;5061025;28;20067;-80
2021/09/20 13:33:41;;;;;;;4.53;1.50;;;;;;;26.64;57.78;92734.91;5049997;28;20049;-80
2021/09/20 13:36:10;;;;;;;6.55;1.75;;;;;;;26.58;57.26;92730.94;5049721;28;20059;-81
2021/09/20 13:38:39;;;;;;;5.43;2.25;;;;;;;26.71;57.94;92747.56;5050028;28;20072;-80
2021/09/20 13:41:11;;;;;;;3.03;1.50;;;;;;;26.71;57.78;92741.53;5049623;28;20049;-81
2021/09/20 13:43:40;;;;;;;4.00;1.77;;;;;;;26.76;57.80;92734.19;5049413;28;20072;-81
2021/09/20 13:46:09;;;;;;;4.30;1.65;;;;;;;26.72;57.68;92732.53;5049355;28;20412;-81
2021/09/20 13:48:37;;;;;;;2.63;1.58;;;;;;;26.79;56.94;92741.44;5049760;28;20045;-81
2021/09/20 13:51:04;;;;;;;6.13;1.92;;;;;;;26.73;56.46;92734.84;5049584;28;20049;-81
2021/09/20 13:53:32;;;;;;;6.35;1.95;;;;;;;26.70;56.02;92732.84;5049731;28;20041;-82
2021/09/20 13:55:59;;;;;;;4.50;1.90;;;;;;;26.67;57.22;92709.78;5049273;28;20556;-81
2021/09/20 13:58:27;;;;;;;4.45;1.60;;;;;;;26.83;56.21;92733.66;5049326;28;20053;-81
2021/09/20 14:00:54;;;;;;;5.25;1.90;;;;;;;26.88;56.00;92737.97;5049746;28;20049;-82
2021/09/20 14:03:22;;;;;;;3.25;1.30;;;;;;;26.64;50.61;92708.56;5049772;28;20060;-81
2021/09/20 14:05:50;;;;;;;3.92;1.70;;;;;;;26.72;52.71;92719.34;5049231;28;20053;-81
2021/09/20 14:08:19;;;;;;;5.10;1.20;;;;;;;26.67;51.40;92722.97;5063500;28;20443;-82
2021/09/20 14:10:47;;;;;;;3.28;1.25;;;;;;;26.74;51.45;92736.38;5069495;28;20086;-81
2021/09/20 14:13:15;;;;;;;2.47;1.08;;;;;;;26.76;49.77;92741.31;5069291;28;20048;-81
2021/09/20 14:15:44;;;;;;;3.38;1.17;;;;;;;26.92;50.96;92744.94;5069226;28;20057;-82
2021/09/20 14:18:10;;;;;;;4.22;1.02;;;;;;;26.92;49.96;92736.25;5069474;28;20048;-81
2021/09/20 14:20:39;;;;;;;4.68;1.20;;;;;;;27.01;49.80;92730.88;5069336;28;20052;-82
2021/09/20 14:23:06;;;;;;;2.97;1.10;;;;;;;27.13;49.27;92749.41;5069313;28;20205;-81
2021/09/20 14:25:36;;;;;;;3.00;1.60;;;;;;;26.93;46.16;92743.06;5069313;28;20045;-81
2021/09/20 14:28:05;;;;;;;2.28;1.05;;;;;;;26.72;46.64;92753.59;5069260;28;20070;-81
2021/09/20 14:30:32;;;;;;;1.95;0.90;;;;;;;26.67;45.90;92755.31;5069027;28;20044;-81
2021/09/20 14:33:01;;;;;;;2.30;0.80;;;;;;;25.25;55.47;92772.06;5069044;28;20386;-80
2021/09/20 14:35:28;;;;;;;1.95;0.98;;;;;;;24.62;60.52;92773.19;5068702;28;20045;-81
2021/09/20 14:37:55;;;;;;;1.95;0.93;;;;;;;24.05;62.85;92795.75;5068936;28;20052;-79
2021/09/20 14:40:25;;;;;;;4.50;1.58;;;;;;;23.28;67.66;92813.13;5058709;28;20045;-79
2021/09/20 14:42:53;;;;;;;3.90;1.02;;;;;;;22.11;77.00;92818.75;5056087;28;20045;-80
2021/09/20 14:45:23;;;;;;;2.65;1.10;;;;;;;21.51;82.99;92820.31;5048871;28;20041;-80
2021/09/20 14:47:50;;;;;;;4.05;1.80;;;;;;;21.18;85.36;92844.59;5049067;28;20072;-79
2021/09/20 14:50:21;;;;;;;2.45;1.30;;;;;;;21.31;85.88;92843.88;5060561;28;20404;-81
2021/09/20 14:52:48;;;;;;;2.40;1.50;;;;;;;21.35;86.61;92857.16;5068821;28;20055;-81
2021/09/20 14:55:15;;;;;;;3.97;1.63;;;;;;;21.42;85.96;92882.91;5069389;28;20499;-80
2021/09/20 14:57:43;;;;;;;3.55;1.60;;;;;;;21.53;86.37;92886.91;5072826;28;20048;-80
2021/09/20 15:00:13;;;;;;;2.95;1.40;;;;;;;21.40;86.22;92908.53;5072711;28;20045;-80
2021/09/20 15:02:41;;;;;;;2.72;1.50;;;;;;;20.89;88.74;92909.00;5072848;28;20055;-80
2021/09/20 15:05:10;;;;;;;1.70;1.20;;;;;;;20.68;90.00;92879.72;5072579;28;20048;-81
2021/09/20 15:07:38;;;;;;;4.53;1.90;;;;;;;20.31;92.74;92918.50;5064656;28;20131;-81
2021/09/20 15:10:07;;;;;;;3.28;1.85;;;;;;;20.11;93.28;92914.28;5063190;28;20048;-80
2021/09/20 15:12:34;;;;;;;11.90;5.93;;;;;;;19.92;95.52;92920.16;5060046;28;20532;-81
2021/09/20 15:15:01;;;;;;;3.28;2.50;;;;;;;19.51;96.67;92931.69;5059062;28;20045;-81
2021/09/20 15:17:27;;;;;;;5.28;3.38;;;;;;;19.37;99.35;92941.97;5067963;28;20390;-80
2021/09/20 15:19:54;;;;;;;7.13;2.92;;;;;;;19.32;98.62;92948.00;5072624;28;20102;-80
2021/09/20 15:22:21;;;;;;;3.08;1.30;;;;;;;19.50;98.05;92959.56;5072022;28;20493;-80
2021/09/20 15:24:49;;;;;;;3.25;2.50;;;;;;;19.35;97.95;92955.25;5072223;28;20049;-80
2021/09/20 15:27:16;;;;;;;2.88;1.58;;;;;;;18.87;98.98;92966.16;5072467;28;20109;-81
2021/09/20 15:29:43;;;;;;;3.33;1.30;;;;;;;18.72;99.60;92969.59;5037616;28;20040;-79
2021/09/20 15:32:11;;;;;;;3.28;1.40;;;;;;;18.77;99.49;92972.19;5072129;28;20155;-80
2021/09/20 15:34:38;;;;;;;2.45;1.52;;;;;;;18.47;100.00;92971.22;5051891;28;20119;-79
2021/09/20 15:37:05;;;;;;;2.28;1.23;;;;;;;18.29;100.00;92975.19;5052235;28;20720;-79
2021/09/20 15:39:32;;;;;;;2.63;1.40;;;;;;;18.01;100.00;92972.84;5052408;28;20064;-80
2021/09/20 15:42:00;;;;;;;4.35;1.60;;;;;;;18.25;100.00;92987.16;5051999;28;20049;-79
2021/09/20 15:44:27;;;;;;;1.90;1.30;;;;;;;18.00;100.00;92981.69;5051927;28;20094;-79
2021/09/20 15:46:55;;;;;;;2.65;1.50;;;;;;;17.95;100.00;92992.09;5061601;28;20045;-79
2021/09/20 15:49:23;;;;;;;3.22;1.67;;;;;;;17.99;100.00;93000.13;5061676;28;20049;-80
2021/09/20 15:51:50;;;;;;;3.17;1.50;;;;;;;17.66;100.00;93007.41;5060368;28;20534;-79
2021/09/20 15:54:18;;;;;;;5.25;2.78;;;;;;;17.43;100.00;93014.63;5057712;28;20053;-79
2021/09/20 15:56:45;;;;;;;3.78;1.98;;;;;;;17.21;100.00;93005.25;5063160;28;20099;-79
2021/09/20 15:59:13;;;;;;;3.80;2.22;;;;;;;17.19;100.00;93028.09;5053831;28;20522;-79
2021/09/20 16:01:40;;;;;;;4.88;3.53;;;;;;;17.21;100.00;93023.41;5060491;28;20048;-79
2021/09/20 16:04:07;;;;;;;3.00;1.50;;;;;;;17.07;100.00;93026.50;5063355;28;20040;-79
2021/09/20 16:06:38;;;;;;;3.20;2.00;;;;;;;16.87;100.00;93009.00;5061799;28;20052;-81
2021/09/20 16:09:05;;;;;;;3.25;1.33;;;;;;;17.06;100.00;93030.13;5061076;28;20048;-80
2021/09/20 16:11:32;;;;;;;3.30;1.42;;;;;;;16.99;100.00;93042.50;5061837;28;20037;-80
2021/09/20 16:14:03;;;;;;;2.83;1.90;;;;;;;17.05;100.00;93051.94;5061885;28;20482;-80
2021/09/20 16:16:31;;;;;;;2.95;2.00;;;;;;;16.99;100.00;93065.09;5068303;28;20064;-80
2021/09/20 16:18:58;;;;;;;3.00;1.65;;;;;;;17.02;100.00;93065.38;5064206;28;20093;-80
2021/09/20 16:21:30;;;;;;;2.70;1.75;;;;;;;16.93;100.00;93075.44;5051965;28;20063;-80
2021/09/20 16:23:58;;;;;;;1.88;1.30;;;;;;;16.73;100.00;93070.16;5058208;28;20037;-80
2021/09/20 16:26:25;;;;;;;2.53;1.63;;;;;;;16.48;100.00;93045.66;5064698;28;20044;-78
2021/09/20 16:28:53;;;;;;;5.53;1.50;;;;;;;16.73;100.00;93080.53;5068288;28;20044;-79
2021/09/20 16:31:20;;;;;;;3.08;1.60;;;;;;;16.61;100.00;93089.28;5065801;28;20057;-79
2021/09/20 16:33:48;;;;;;;2.83;1.50;;;;;;;16.58;100.00;93096.78;5051262;28;20060;-79
2021/09/20 16:36:16;;;;;;;2.30;1.65;;;;;;;16.45;100.00;93079.84;5051143;28;20059;-80
2021/09/20 16:38:43;;;;;;;3.55;1.92;;;;;;;16.55;100.00;93090.28;5051429;28;20045;-78
2021/09/20 16:41:10;;;;;;;2.55;1.95;;;;;;;16.49;100.00;93102.44;5051091;28;20406;-78
2021/09/20 16:43:36;;;;;;;2.63;1.92;;;;;;;16.41;100.00;93085.53;5051031;28;20048;-79
2021/09/20 16:46:04;;;;;;;2.17;1.77;;;;;;;16.51;100.00;93086.63;5051169;28;20452;-80
2021/09/20 16:48:30;;;;;;;2.75;1.90;;;;;;;16.50;100.00;93108.38;5068575;28;20048;-79
2021/09/20 16:50:59;;;;;;;3.72;2.50;;;;;;;16.46;100.00;93115.88;5071138;28;20048;-80
2021/09/20 16:53:26;;;;;;;6.03;4.38;;;;;;;16.37;100.00;93094.81;5070662;28;20090;-79
2021/09/20 16:55:53;;;;;;;22.25;12.68;;;;;;;16.33;100.00;93109.31;5070879;28;20048;-79
2021/09/20 16:58:20;;;;;;;4.50;2.97;;;;;;;16.32;100.00;93119.91;5070850;28;20044;-82
2021/09/20 17:00:47;;;;;;;3.55;2.70;;;;;;;16.12;100.00;93106.53;5070774;28;20056;-80
2021/09/20 17:03:13;;;;;;;3.13;2.70;;;;;;;16.32;100.00;93130.28;5070460;28;20056;-81
2021/09/20 17:05:40;;;;;;;3.50;3.03;;;;;;;16.08;100.00;93139.19;5070676;28;20466;-81
2021/09/20 17:08:09;;;;;;;4.53;3.78;;;;;;;16.05;100.00;93137.06;5070341;28;20052;-82
2021/09/20 17:10:36;;;;;;;4.47;3.90;;;;;;;16.03;100.00;93133.94;5070640;28;20052;-82
2021/09/20 17:13:04;;;;;;;4.55;4.13;;;;;;;15.85;100.00;93122.06;5070531;28;20044;-81
2021/09/20 17:15:32;;;;;;;4.00;3.50;;;;;;;15.84;100.00;93121.28;5070070;28;20051;-80
2021/09/20 17:17:58;;;;;;;5.57;4.03;;;;;;;15.79;100.00;93121.25;5069653;28;20048;-80